Time;durP1;ratioP1;P1;durP2;ratioP2;P2;SDS_P1;SDS_P2;PMS_P1;PMS_P2;Temp;Humidity;BMP_temperature;BMP_pressure;BME280_temperature;BME280_humidity;BME280_pressure;Samples;Min_cycle;Max_cycle;Signal;HPM_P1;HPM_P2
2024/02/11 00:02:25;;;;;;;16.27;6.95;;;;;;;;;;4907795;29;20055;-76
2024/02/11 00:04:57;;;;;;;9.93;6.00;;;;;;;;;;4905485;29;20048;-75
2024/02/11 00:07:29;;;;;;;12.15;7.82;;;;;;;;;;4907080;29;20407;-76
2024/02/11 00:10:01;;;;;;;15.07;7.47;;;;;;;;;;4907283;29;20499;-74
2024/02/11 00:12:31;;;;;;;11.93;8.30;;;;;;;;;;4906818;29;20416;-74
2024/02/11 00:15:05;;;;;;;15.40;7.97;;;;;;;;;;4906950;29;20044;-74
2024/02/11 00:17:36;;;;;;;10.77;7.45;;;;;;;;;;4906831;29;20055;-74
2024/02/11 00:20:09;;;;;;;11.20;7.30;;;;;;;;;;4906462;29;20512;-74
2024/02/11 00:22:41;;;;;;;17.33;9.07;;;;;;;;;;4906387;29;20052;-73
2024/02/11 00:25:14;;;;;;;17.92;9.18;;;;;;;;;;4906650;29;20048;-73
2024/02/11 00:27:49;;;;;;;15.95;8.57;;;;;;;;;;4906820;29;20056;-73
2024/02/11 00:30:23;;;;;;;16.85;8.05;;;;;;;;;;4906726;29;20052;-74
2024/02/11 00:33:32;;;;;;;19.48;8.40;;;;;;;;;;4905118;29;20051;-78
2024/02/11 00:36:36;;;;;;;16.55;7.97;;;;;;;;;;4906994;29;20060;-74
2024/02/11 00:39:06;;;;;;;21.48;7.55;;;;;;;;;;4906103;29;20055;-72
2024/02/11 00:41:42;;;;;;;12.70;6.68;;;;;;;;;;4906304;29;20055;-76
2024/02/11 00:44:12;;;;;;;13.02;5.72;;;;;;;;;;4906157;29;20055;-73
2024/02/11 00:46:43;;;;;;;11.60;5.82;;;;;;;;;;4906065;29;20047;-79
2024/02/11 00:49:15;;;;;;;14.13;5.30;;;;;;;;;;4906612;29;20063;-73
2024/02/11 00:51:45;;;;;;;12.15;4.90;;;;;;;;;;4903863;29;20064;-75
2024/02/11 00:54:15;;;;;;;7.15;4.53;;;;;;;;;;4906629;29;20044;-76
2024/02/11 00:56:54;;;;;;;7.05;3.70;;;;;;;;;;4906585;29;20059;-75
2024/02/11 00:59:26;;;;;;;8.70;3.80;;;;;;;;;;4906231;29;20072;-75
2024/02/11 01:01:56;;;;;;;6.97;3.88;;;;;;;;;;4906199;29;20070;-74
2024/02/11 01:04:27;;;;;;;9.60;4.32;;;;;;;;;;4906508;29;20051;-76
2024/02/11 01:06:59;;;;;;;11.85;4.75;;;;;;;;;;4906587;29;20071;-75
2024/02/11 01:09:29;;;;;;;12.18;4.80;;;;;;;;;;4906553;29;20063;-73
2024/02/11 01:12:00;;;;;;;11.80;4.63;;;;;;;;;;4906273;29;20059;-76
2024/02/11 01:14:31;;;;;;;10.98;5.20;;;;;;;;;;4904484;29;20534;-75
2024/02/11 01:17:03;;;;;;;8.65;4.80;;;;;;;;;;4906643;29;20546;-74
2024/02/11 01:19:35;;;;;;;13.55;4.47;;;;;;;;;;4907215;29;20044;-74
2024/02/11 01:22:07;;;;;;;11.43;4.95;;;;;;;;;;4907487;29;20048;-74
2024/02/11 01:24:38;;;;;;;13.02;4.97;;;;;;;;;;4906982;29;20701;-75
2024/02/11 01:27:08;;;;;;;8.63;5.22;;;;;;;;;;4905507;29;20427;-74
2024/02/11 01:29:38;;;;;;;9.00;4.40;;;;;;;;;;4905672;29;20048;-76
2024/02/11 01:32:09;;;;;;;10.80;4.43;;;;;;;;;;4905801;29;20048;-75
2024/02/11 01:34:40;;;;;;;15.90;4.30;;;;;;;;;;4905659;29;20052;-75
2024/02/11 01:37:10;;;;;;;10.80;4.75;;;;;;;;;;4905805;29;20063;-75
2024/02/11 01:39:40;;;;;;;6.78;4.28;;;;;;;;;;4906015;29;20052;-76
2024/02/11 01:42:10;;;;;;;12.40;5.03;;;;;;;;;;4905699;29;20408;-74
2024/02/11 01:44:41;;;;;;;8.32;5.05;;;;;;;;;;4905871;29;20419;-73
2024/02/11 01:47:12;;;;;;;9.80;4.65;;;;;;;;;;4905515;29;20058;-74
2024/02/11 01:49:44;;;;;;;9.32;5.10;;;;;;;;;;4906101;29;20048;-76
2024/02/11 01:52:15;;;;;;;8.18;4.93;;;;;;;;;;4905883;29;20051;-74
2024/02/11 01:54:47;;;;;;;12.95;4.90;;;;;;;;;;4908660;29;20051;-75
2024/02/11 01:57:17;;;;;;;9.75;5.20;;;;;;;;;;4909213;29;20075;-76
2024/02/11 01:59:49;;;;;;;11.30;4.97;;;;;;;;;;4907767;29;20060;-76
2024/02/11 02:02:20;;;;;;;10.98;5.13;;;;;;;;;;4909043;29;20411;-74
2024/02/11 02:04:52;;;;;;;8.65;5.57;;;;;;;;;;4910463;29;20052;-76
2024/02/11 02:07:23;;;;;;;6.40;4.55;;;;;;;;;;4908285;29;20060;-75
2024/02/11 02:09:54;;;;;;;11.30;4.97;;;;;;;;;;4908325;29;20044;-75
2024/02/11 02:12:25;;;;;;;11.10;5.35;;;;;;;;;;4909276;29;20056;-75
2024/02/11 02:14:57;;;;;;;11.85;4.90;;;;;;;;;;4908728;29;20083;-75
2024/02/11 02:17:29;;;;;;;11.85;4.97;;;;;;;;;;4908810;29;20071;-74
2024/02/11 02:19:59;;;;;;;10.05;5.57;;;;;;;;;;4908738;29;20424;-74
2024/02/11 02:22:30;;;;;;;8.48;5.93;;;;;;;;;;4907652;29;20052;-77
2024/02/11 02:25:01;;;;;;;9.60;4.82;;;;;;;;;;4908160;29;20044;-76
2024/02/11 02:27:32;;;;;;;10.10;4.90;;;;;;;;;;4909342;29;20052;-73
2024/02/11 02:30:05;;;;;;;8.13;4.90;;;;;;;;;;4908742;29;20099;-75
2024/02/11 02:32:36;;;;;;;10.48;4.68;;;;;;;;;;4907007;29;20064;-73
2024/02/11 02:35:07;;;;;;;8.90;4.97;;;;;;;;;;4909022;29;20067;-75
2024/02/11 02:37:43;;;;;;;8.82;5.60;;;;;;;;;;4908333;29;20064;-74
2024/02/11 02:40:16;;;;;;;8.48;5.10;;;;;;;;;;4907324;29;20134;-74
2024/02/11 02:42:46;;;;;;;11.65;5.53;;;;;;;;;;4909093;29;20047;-74
2024/02/11 02:45:17;;;;;;;8.25;4.70;;;;;;;;;;4908244;29;20504;-74
2024/02/11 02:47:48;;;;;;;9.05;5.00;;;;;;;;;;4908681;29;20047;-74
2024/02/11 02:50:19;;;;;;;11.38;5.53;;;;;;;;;;4908079;29;20512;-75
2024/02/11 02:52:49;;;;;;;12.70;5.45;;;;;;;;;;4909532;29;20051;-74
2024/02/11 02:55:20;;;;;;;9.35;5.50;;;;;;;;;;4908716;29;20423;-76
2024/02/11 02:57:51;;;;;;;11.27;5.47;;;;;;;;;;4908481;29;20056;-74
2024/02/11 03:00:23;;;;;;;7.82;5.95;;;;;;;;;;4908124;29;20052;-76
2024/02/11 03:02:53;;;;;;;9.60;5.10;;;;;;;;;;4907904;29;20047;-74
2024/02/11 03:05:23;;;;;;;8.07;4.95;;;;;;;;;;4908135;29;20067;-75
2024/02/11 03:07:56;;;;;;;16.05;5.28;;;;;;;;;;4908991;29;20059;-74
2024/02/11 03:10:26;;;;;;;6.95;4.72;;;;;;;;;;4907388;29;20060;-75
2024/02/11 03:12:56;;;;;;;20.35;7.88;;;;;;;;;;4908180;29;20052;-74
2024/02/11 03:15:28;;;;;;;13.85;6.35;;;;;;;;;;4906503;29;20075;-75
2024/02/11 03:18:02;;;;;;;19.30;7.53;;;;;;;;;;4907985;29;20856;-75
2024/02/11 03:20:33;;;;;;;14.63;7.10;;;;;;;;;;4907346;29;20400;-74
2024/02/11 03:23:04;;;;;;;15.68;5.30;;;;;;;;;;4908368;29;20056;-74
2024/02/11 03:25:35;;;;;;;10.30;5.53;;;;;;;;;;4907509;29;20048;-75
2024/02/11 03:28:06;;;;;;;12.65;5.00;;;;;;;;;;4907742;29;20048;-74
2024/02/11 03:30:37;;;;;;;10.93;4.45;;;;;;;;;;4908513;29;20048;-76
2024/02/11 03:33:07;;;;;;;14.88;5.07;;;;;;;;;;4908150;29;20056;-74
2024/02/11 03:35:37;;;;;;;10.35;4.53;;;;;;;;;;4907588;29;20134;-74
2024/02/11 03:38:12;;;;;;;20.95;5.30;;;;;;;;;;4907284;29;20052;-73
2024/02/11 03:40:43;;;;;;;16.88;6.53;;;;;;;;;;4907531;29;20056;-74
2024/02/11 03:43:13;;;;;;;25.60;5.60;;;;;;;;;;4907006;29;20059;-73
2024/02/11 03:45:44;;;;;;;13.85;5.20;;;;;;;;;;4907668;29;20055;-76
2024/02/11 03:48:15;;;;;;;15.13;5.78;;;;;;;;;;4905412;29;20056;-74
2024/02/11 03:50:46;;;;;;;12.52;5.78;;;;;;;;;;4907338;29;20052;-77
2024/02/11 03:53:18;;;;;;;13.85;4.97;;;;;;;;;;4908029;29;20428;-75
2024/02/11 03:55:50;;;;;;;10.10;4.03;;;;;;;;;;4907586;29;20048;-74
2024/02/11 03:58:20;;;;;;;7.20;3.85;;;;;;;;;;4906849;29;20052;-74
2024/02/11 04:00:51;;;;;;;9.80;4.20;;;;;;;;;;4906993;29;20363;-74
2024/02/11 04:03:22;;;;;;;10.02;4.18;;;;;;;;;;4906505;29;20052;-73
2024/02/11 04:05:55;;;;;;;12.57;4.70;;;;;;;;;;4907156;29;20044;-74
2024/02/11 04:08:25;;;;;;;13.85;4.53;;;;;;;;;;4907332;29;20048;-73
2024/02/11 04:10:57;;;;;;;10.95;3.80;;;;;;;;;;4908256;29;20048;-73
2024/02/11 04:13:30;;;;;;;11.23;4.78;;;;;;;;;;4907266;29;20075;-77
2024/02/11 04:16:11;;;;;;;9.60;3.72;;;;;;;;;;4906357;29;20068;-73
2024/02/11 04:18:41;;;;;;;7.20;4.22;;;;;;;;;;4907204;29;20044;-74
2024/02/11 04:21:15;;;;;;;7.93;3.90;;;;;;;;;;4906655;29;20071;-74
2024/02/11 04:23:46;;;;;;;7.28;4.43;;;;;;;;;;4907199;29;20413;-73
2024/02/11 04:26:17;;;;;;;10.70;4.63;;;;;;;;;;4907205;29;20435;-75
2024/02/11 04:28:48;;;;;;;9.07;4.60;;;;;;;;;;4907509;29;20504;-76
2024/02/11 04:31:21;;;;;;;13.40;4.82;;;;;;;;;;4906882;29;20052;-77
2024/02/11 04:33:52;;;;;;;10.25;4.80;;;;;;;;;;4906436;29;20052;-74
2024/02/11 04:36:24;;;;;;;12.93;4.80;;;;;;;;;;4907078;29;20059;-75
2024/02/11 04:38:57;;;;;;;8.57;3.88;;;;;;;;;;4906559;29;20114;-74
2024/02/11 04:41:29;;;;;;;10.93;4.70;;;;;;;;;;4905214;29;20052;-74
2024/02/11 04:43:59;;;;;;;11.35;4.20;;;;;;;;;;4906942;29;20610;-74
2024/02/11 04:46:30;;;;;;;4.93;3.65;;;;;;;;;;4906076;29;20056;-74
2024/02/11 04:49:00;;;;;;;7.22;4.18;;;;;;;;;;4906072;29;20048;-74
2024/02/11 04:51:31;;;;;;;6.68;3.83;;;;;;;;;;4906075;29;20040;-74
2024/02/11 04:54:04;;;;;;;10.15;3.78;;;;;;;;;;4906797;29;20048;-75
2024/02/11 04:56:35;;;;;;;10.05;3.75;;;;;;;;;;4906814;29;20055;-75
2024/02/11 04:59:38;;;;;;;7.68;3.75;;;;;;;;;;4906901;29;20059;-73
2024/02/11 05:02:09;;;;;;;10.18;3.80;;;;;;;;;;4906585;29;20512;-74
2024/02/11 05:04:43;;;;;;;6.45;3.67;;;;;;;;;;4906654;29;20048;-73
2024/02/11 05:07:14;;;;;;;9.38;4.03;;;;;;;;;;4906542;29;20156;-74
2024/02/11 05:09:45;;;;;;;5.90;3.92;;;;;;;;;;4906360;29;20076;-74
2024/02/11 05:12:17;;;;;;;10.25;3.78;;;;;;;;;;4906156;29;20515;-73
2024/02/11 05:14:49;;;;;;;6.13;4.07;;;;;;;;;;4906488;29;20048;-73
2024/02/11 05:17:19;;;;;;;7.10;4.22;;;;;;;;;;4906410;29;20064;-73
2024/02/11 05:19:50;;;;;;;8.23;4.07;;;;;;;;;;4905442;29;20153;-76
2024/02/11 05:22:25;;;;;;;7.25;4.65;;;;;;;;;;4906771;29;20052;-73
2024/02/11 05:24:59;;;;;;;9.60;4.05;;;;;;;;;;4907170;29;20048;-74
2024/02/11 05:27:29;;;;;;;5.38;3.97;;;;;;;;;;4907164;29;20791;-75
2024/02/11 05:30:00;;;;;;;6.00;3.85;;;;;;;;;;4908429;29;20067;-74
2024/02/11 05:32:32;;;;;;;10.25;4.70;;;;;;;;;;4908367;29;20059;-74
2024/02/11 05:35:09;;;;;;;6.78;3.47;;;;;;;;;;4909667;29;20051;-74
2024/02/11 05:37:41;;;;;;;6.50;3.60;;;;;;;;;;4909766;29;20048;-74
2024/02/11 05:40:15;;;;;;;6.55;3.80;;;;;;;;;;4909341;29;20044;-74
2024/02/11 05:42:46;;;;;;;5.63;3.42;;;;;;;;;;4909534;29;20048;-71
2024/02/11 05:45:18;;;;;;;9.20;3.78;;;;;;;;;;4909498;29;20055;-74
2024/02/11 05:47:50;;;;;;;6.95;3.63;;;;;;;;;;4910061;29;20047;-73
2024/02/11 05:50:22;;;;;;;7.22;3.70;;;;;;;;;;4909482;29;20047;-75
2024/02/11 05:52:54;;;;;;;10.10;3.50;;;;;;;;;;4907862;29;20538;-75
2024/02/11 05:55:26;;;;;;;7.72;4.43;;;;;;;;;;4908926;29;20875;-74
2024/02/11 05:57:56;;;;;;;7.07;3.92;;;;;;;;;;4908515;29;20048;-73
2024/02/11 06:00:31;;;;;;;9.05;3.67;;;;;;;;;;4908616;29;20056;-74
2024/02/11 06:03:02;;;;;;;;;;;;;;;;;;4909735;29;20048;-74
2024/02/11 06:05:32;;;;;;;8.88;4.72;;;;;;;;;;4909093;29;19927;-75
2024/02/11 06:08:03;;;;;;;11.15;4.22;;;;;;;;;;4908994;29;20508;-76
2024/02/11 06:10:33;;;;;;;9.50;4.18;;;;;;;;;;4907936;29;20516;-73
2024/02/11 06:13:07;;;;;;;7.05;3.70;;;;;;;;;;4908739;29;20079;-74
2024/02/11 06:15:40;;;;;;;9.35;4.28;;;;;;;;;;4909156;29;20122;-73
2024/02/11 06:18:11;;;;;;;8.75;4.10;;;;;;;;;;4908969;29;20412;-73
2024/02/11 06:20:41;;;;;;;12.30;4.72;;;;;;;;;;4909205;29;20052;-72
2024/02/11 06:23:12;;;;;;;8.55;4.18;;;;;;;;;;4909766;29;20052;-72
2024/02/11 06:25:44;;;;;;;9.85;3.92;;;;;;;;;;4908946;29;20060;-73
2024/02/11 06:28:14;;;;;;;5.68;3.60;;;;;;;;;;4907300;29;20538;-73
2024/02/11 06:30:44;;;;;;;9.40;4.35;;;;;;;;;;4909219;29;20048;-76
2024/02/11 06:33:15;;;;;;;15.40;4.47;;;;;;;;;;4908485;29;20415;-75
2024/02/11 06:35:46;;;;;;;9.02;4.10;;;;;;;;;;4907321;29;20056;-73
2024/02/11 06:38:17;;;;;;;10.00;4.68;;;;;;;;;;4908539;29;20396;-74
2024/02/11 06:40:47;;;;;;;8.02;3.85;;;;;;;;;;4907464;29;20048;-74
2024/02/11 06:43:17;;;;;;;6.32;3.85;;;;;;;;;;4908346;29;20044;-75
2024/02/11 06:45:47;;;;;;;7.43;4.07;;;;;;;;;;4907501;29;20072;-75
2024/02/11 06:48:19;;;;;;;8.07;4.93;;;;;;;;;;4905720;29;20703;-74
2024/02/11 06:50:50;;;;;;;7.97;4.55;;;;;;;;;;4908302;29;20416;-73
2024/02/11 06:53:21;;;;;;;6.88;4.20;;;;;;;;;;4907895;29;20819;-76
2024/02/11 06:55:51;;;;;;;7.70;4.22;;;;;;;;;;4908177;29;20044;-74
2024/02/11 06:58:23;;;;;;;7.45;4.32;;;;;;;;;;4905848;29;20067;-74
2024/02/11 07:00:56;;;;;;;7.13;4.10;;;;;;;;;;4906087;29;20063;-73
2024/02/11 07:03:28;;;;;;;7.05;4.00;;;;;;;;;;4908185;29;20553;-75
2024/02/11 07:06:00;;;;;;;5.55;3.95;;;;;;;;;;4908805;29;20051;-76
2024/02/11 07:08:30;;;;;;;6.93;4.43;;;;;;;;;;4908330;29;20629;-76
2024/02/11 07:11:02;;;;;;;11.38;4.28;;;;;;;;;;4908327;29;20055;-75
2024/02/11 07:13:34;;;;;;;7.25;3.72;;;;;;;;;;4908289;29;20044;-76
2024/02/11 07:16:07;;;;;;;8.95;4.00;;;;;;;;;;4905868;29;20059;-74
2024/02/11 07:18:38;;;;;;;8.55;4.50;;;;;;;;;;4907498;29;20052;-75
2024/02/11 07:21:12;;;;;;;7.00;4.32;;;;;;;;;;4907332;29;20048;-75
2024/02/11 07:23:44;;;;;;;7.10;4.18;;;;;;;;;;4907402;29;20048;-75
2024/02/11 07:26:14;;;;;;;9.05;4.43;;;;;;;;;;4907403;29;20599;-74
2024/02/11 07:28:46;;;;;;;12.23;4.82;;;;;;;;;;4907909;29;20059;-74
2024/02/11 07:31:17;;;;;;;12.65;4.60;;;;;;;;;;4907774;29;20056;-75
2024/02/11 07:33:49;;;;;;;8.02;3.92;;;;;;;;;;4904832;29;20052;-76
2024/02/11 07:36:22;;;;;;;12.73;4.63;;;;;;;;;;4907823;29;20048;-76
2024/02/11 07:38:52;;;;;;;8.77;4.70;;;;;;;;;;4907114;29;20044;-75
2024/02/11 07:41:24;;;;;;;8.88;3.78;;;;;;;;;;4906066;29;20056;-74
2024/02/11 07:44:26;;;;;;;7.05;3.95;;;;;;;;;;4907640;29;20059;-75
2024/02/11 07:46:57;;;;;;;9.85;4.60;;;;;;;;;;4905433;29;20048;-74
2024/02/11 07:49:28;;;;;;;9.10;4.55;;;;;;;;;;4907192;29;20551;-73
2024/02/11 07:51:58;;;;;;;6.45;4.40;;;;;;;;;;4906286;29;20051;-77
2024/02/11 07:54:31;;;;;;;8.27;3.92;;;;;;;;;;4907251;29;20526;-76
2024/02/11 07:57:01;;;;;;;10.75;5.05;;;;;;;;;;4907439;29;20411;-74
2024/02/11 07:59:31;;;;;;;12.57;4.82;;;;;;;;;;4907924;29;20047;-76
2024/02/11 08:02:01;;;;;;;11.07;4.75;;;;;;;;;;4907358;29;20040;-75
2024/02/11 08:04:32;;;;;;;8.20;4.60;;;;;;;;;;4906553;29;20523;-73
2024/02/11 08:07:04;;;;;;;12.43;5.53;;;;;;;;;;4905109;29;20424;-73
2024/02/11 08:09:34;;;;;;;10.55;4.00;;;;;;;;;;4907223;29;20048;-75
2024/02/11 08:12:05;;;;;;;7.30;4.30;;;;;;;;;;4905363;29;20056;-73
2024/02/11 08:14:37;;;;;;;6.53;4.40;;;;;;;;;;4906566;29;20048;-73
2024/02/11 08:17:09;;;;;;;7.60;4.60;;;;;;;;;;4906683;29;20511;-77
2024/02/11 08:19:40;;;;;;;7.88;4.15;;;;;;;;;;4906260;29;20055;-72
2024/02/11 08:22:11;;;;;;;5.38;4.35;;;;;;;;;;4906507;29;20059;-73
2024/02/11 08:24:43;;;;;;;6.47;4.50;;;;;;;;;;4904595;29;20606;-74
2024/02/11 08:27:13;;;;;;;8.27;4.32;;;;;;;;;;4906117;29;20056;-73
2024/02/11 08:29:47;;;;;;;10.95;4.85;;;;;;;;;;4906465;29;20052;-73
2024/02/11 08:32:18;;;;;;;10.40;4.60;;;;;;;;;;4906411;29;20071;-75
2024/02/11 08:34:49;;;;;;;8.45;4.55;;;;;;;;;;4906797;29;20519;-74
2024/02/11 08:37:20;;;;;;;6.55;4.32;;;;;;;;;;4906890;29;20063;-74
2024/02/11 08:39:50;;;;;;;10.32;4.63;;;;;;;;;;4903615;29;20067;-74
2024/02/11 08:42:23;;;;;;;7.05;4.68;;;;;;;;;;4905845;29;20056;-75
2024/02/11 08:44:56;;;;;;;7.63;4.28;;;;;;;;;;4905739;29;20051;-75
2024/02/11 08:47:29;;;;;;;8.73;4.47;;;;;;;;;;4906398;29;20048;-72
2024/02/11 08:49:59;;;;;;;6.90;5.28;;;;;;;;;;4906117;29;20411;-73
2024/02/11 08:52:29;;;;;;;15.50;5.30;;;;;;;;;;4905943;29;20052;-73
2024/02/11 08:55:01;;;;;;;8.60;4.68;;;;;;;;;;4905755;29;20055;-76
2024/02/11 08:57:31;;;;;;;10.35;4.18;;;;;;;;;;4906262;29;20052;-74
2024/02/11 09:00:03;;;;;;;8.50;4.30;;;;;;;;;;4906253;29;20543;-76
2024/02/11 09:02:33;;;;;;;9.90;5.20;;;;;;;;;;4904755;29;20405;-75
2024/02/11 09:05:04;;;;;;;7.43;4.20;;;;;;;;;;4909902;29;20044;-74
2024/02/11 09:07:38;;;;;;;9.70;4.72;;;;;;;;;;4909804;29;20059;-73
2024/02/11 09:10:13;;;;;;;8.88;4.38;;;;;;;;;;4908675;29;20504;-74
2024/02/11 09:12:44;;;;;;;9.90;4.40;;;;;;;;;;4910233;29;20445;-73
2024/02/11 09:15:15;;;;;;;5.82;4.10;;;;;;;;;;4909894;29;20056;-73
2024/02/11 09:17:48;;;;;;;8.90;4.28;;;;;;;;;;4909246;29;20063;-73
2024/02/11 09:20:19;;;;;;;5.68;4.20;;;;;;;;;;4909908;29;20052;-74
2024/02/11 09:22:49;;;;;;;10.70;4.10;;;;;;;;;;4908301;29;20170;-75
2024/02/11 09:25:21;;;;;;;7.30;4.68;;;;;;;;;;4909264;29;20063;-74
2024/02/11 09:27:51;;;;;;;9.95;4.78;;;;;;;;;;4909807;29;20508;-74
2024/02/11 09:30:22;;;;;;;10.73;4.07;;;;;;;;;;4909880;29;20055;-73
2024/02/11 09:32:52;;;;;;;9.65;4.53;;;;;;;;;;4907545;29;20060;-74
2024/02/11 09:35:23;;;;;;;5.43;4.00;;;;;;;;;;4910078;29;20055;-74
2024/02/11 09:37:54;;;;;;;8.02;3.90;;;;;;;;;;4909425;29;20036;-74
2024/02/11 09:40:25;;;;;;;9.52;4.30;;;;;;;;;;4909683;29;20058;-75
2024/02/11 09:42:57;;;;;;;7.05;4.00;;;;;;;;;;4909684;29;20056;-73
2024/02/11 09:45:29;;;;;;;7.82;4.70;;;;;;;;;;4909448;29;20052;-73
2024/02/11 09:48:00;;;;;;;10.90;4.15;;;;;;;;;;4909415;29;20051;-73
2024/02/11 09:50:32;;;;;;;6.97;4.38;;;;;;;;;;4909088;29;20051;-75
2024/02/11 09:53:10;;;;;;;6.60;4.03;;;;;;;;;;4909004;29;20055;-74
2024/02/11 09:55:48;;;;;;;10.52;4.30;;;;;;;;;;4909704;29;20051;-74
2024/02/11 09:58:21;;;;;;;11.00;4.35;;;;;;;;;;4909054;29;20137;-75
2024/02/11 10:00:56;;;;;;;7.28;4.20;;;;;;;;;;4907415;29;20063;-76
2024/02/11 10:03:27;;;;;;;8.43;5.10;;;;;;;;;;4908585;29;20688;-74
2024/02/11 10:05:59;;;;;;;8.07;4.78;;;;;;;;;;4908380;29;20063;-74
2024/02/11 10:08:31;;;;;;;8.48;3.97;;;;;;;;;;4908733;29;20055;-74
2024/02/11 10:11:09;;;;;;;14.02;4.18;;;;;;;;;;4908748;29;20550;-74
2024/02/11 10:13:40;;;;;;;17.30;4.85;;;;;;;;;;4908234;29;20122;-75
2024/02/11 10:16:12;;;;;;;15.50;4.32;;;;;;;;;;4907922;29;20526;-74
2024/02/11 10:18:42;;;;;;;6.57;4.47;;;;;;;;;;4907106;29;20439;-75
2024/02/11 10:21:13;;;;;;;14.40;4.30;;;;;;;;;;4909231;29;20051;-73
2024/02/11 10:23:44;;;;;;;11.38;5.40;;;;;;;;;;4908757;29;20412;-74
2024/02/11 10:26:16;;;;;;;8.25;3.90;;;;;;;;;;4908831;29;20056;-75
2024/02/11 10:28:46;;;;;;;13.25;4.20;;;;;;;;;;4908311;29;20048;-74
2024/02/11 10:31:17;;;;;;;9.52;4.07;;;;;;;;;;4907257;29;20071;-76
2024/02/11 10:33:47;;;;;;;10.63;3.70;;;;;;;;;;4908534;29;20063;-74
2024/02/11 10:36:18;;;;;;;4.90;3.63;;;;;;;;;;4908823;29;20060;-74
2024/02/11 10:38:56;;;;;;;5.85;3.50;;;;;;;;;;4908692;29;20067;-74
2024/02/11 10:41:28;;;;;;;8.57;3.80;;;;;;;;;;4908278;29;20102;-72
2024/02/11 10:43:59;;;;;;;7.80;3.50;;;;;;;;;;4907149;29;20060;-76
2024/02/11 10:46:30;;;;;;;13.13;3.47;;;;;;;;;;4908316;29;20419;-76
2024/02/11 10:49:03;;;;;;;6.28;3.28;;;;;;;;;;4908573;29;20420;-77
2024/02/11 10:51:39;;;;;;;5.95;2.60;;;;;;;;;;4907560;29;20052;-75
2024/02/11 10:54:14;;;;;;;7.63;3.30;;;;;;;;;;4908656;29;20048;-81
2024/02/11 10:56:45;;;;;;;9.05;2.95;;;;;;;;;;4907889;29;20036;-75
2024/02/11 10:59:29;;;;;;;6.43;3.10;;;;;;;;;;4907629;29;20048;-73
2024/02/11 11:02:00;;;;;;;8.10;3.38;;;;;;;;;;4906435;29;20055;-72
2024/02/11 11:04:40;;;;;;;6.18;2.65;;;;;;;;;;4907913;29;20056;-73
2024/02/11 11:07:15;;;;;;;4.25;2.20;;;;;;;;;;4908002;29;20052;-77
2024/02/11 11:09:48;;;;;;;5.07;2.97;;;;;;;;;;4907617;29;20055;-74
2024/02/11 11:12:18;;;;;;;5.63;2.42;;;;;;;;;;4907978;29;20059;-75
2024/02/11 11:14:48;;;;;;;3.83;2.05;;;;;;;;;;4908282;29;20058;-72
2024/02/11 11:17:26;;;;;;;5.78;2.00;;;;;;;;;;4907786;29;20064;-74
2024/02/11 11:19:59;;;;;;;4.03;2.33;;;;;;;;;;4908173;29;20393;-76
2024/02/11 11:22:33;;;;;;;6.60;2.17;;;;;;;;;;4907457;29;20056;-73
2024/02/11 11:25:05;;;;;;;6.53;1.92;;;;;;;;;;4907747;29;20059;-73
2024/02/11 11:27:35;;;;;;;4.57;1.95;;;;;;;;;;4907158;29;20081;-74
2024/02/11 11:30:07;;;;;;;3.85;2.00;;;;;;;;;;4907833;29;20070;-75
2024/02/11 11:32:49;;;;;;;4.47;1.90;;;;;;;;;;4907842;29;20052;-77
2024/02/11 11:35:19;;;;;;;7.93;1.98;;;;;;;;;;4906427;29;20516;-75
2024/02/11 11:37:49;;;;;;;6.10;1.92;;;;;;;;;;4907221;29;20071;-74
2024/02/11 11:40:22;;;;;;;7.85;2.30;;;;;;;;;;4908229;29;20044;-77
2024/02/11 11:42:54;;;;;;;4.25;1.80;;;;;;;;;;4905313;29;20052;-75
2024/02/11 11:45:26;;;;;;;4.85;1.90;;;;;;;;;;4907728;29;20060;-75
2024/02/11 11:48:02;;;;;;;4.65;2.10;;;;;;;;;;4906898;29;20075;-74
2024/02/11 11:50:32;;;;;;;6.10;2.20;;;;;;;;;;4905757;29;20052;-73
2024/02/11 11:53:05;;;;;;;10.80;2.20;;;;;;;;;;4907257;29;20048;-75
2024/02/11 11:55:38;;;;;;;6.65;1.80;;;;;;;;;;4907531;29;20055;-72
2024/02/11 11:58:08;;;;;;;4.03;1.83;;;;;;;;;;4907012;29;20048;-75
2024/02/11 12:00:41;;;;;;;4.30;1.98;;;;;;;;;;4905638;29;20524;-76
2024/02/11 12:03:12;;;;;;;4.47;1.70;;;;;;;;;;4907441;29;20052;-77
2024/02/11 12:05:43;;;;;;;5.07;2.00;;;;;;;;;;4907839;29;20059;-74
2024/02/11 12:08:15;;;;;;;9.13;2.38;;;;;;;;;;4907894;29;20048;-75
2024/02/11 12:11:23;;;;;;;5.93;1.85;;;;;;;;;;4906511;29;20055;-75
2024/02/11 12:13:55;;;;;;;4.47;1.65;;;;;;;;;;4905068;29;20071;-73
2024/02/11 12:16:26;;;;;;;4.65;1.80;;;;;;;;;;4905811;29;20548;-73
2024/02/11 12:18:57;;;;;;;7.68;2.22;;;;;;;;;;4906884;29;20060;-75
2024/02/11 12:21:34;;;;;;;9.13;1.48;;;;;;;;;;4906740;29;20059;-75
2024/02/11 12:24:08;;;;;;;4.00;1.50;;;;;;;;;;4905947;29;20055;-79
2024/02/11 12:26:39;;;;;;;4.10;1.30;;;;;;;;;;4906324;29;20515;-74
2024/02/11 12:29:10;;;;;;;4.85;1.48;;;;;;;;;;4906783;29;20063;-74
2024/02/11 12:31:41;;;;;;;6.57;1.63;;;;;;;;;;4906859;29;20052;-76
2024/02/11 12:34:13;;;;;;;3.00;1.25;;;;;;;;;;4907427;29;20048;-78
2024/02/11 12:36:44;;;;;;;5.93;1.50;;;;;;;;;;4906986;29;20056;-76
2024/02/11 12:39:15;;;;;;;2.60;1.27;;;;;;;;;;4906363;29;20048;-74
2024/02/11 12:41:45;;;;;;;14.90;9.40;;;;;;;;;;4906923;29;20059;-78
2024/02/11 12:44:17;;;;;;;11.65;2.42;;;;;;;;;;4906978;29;20052;-77
2024/02/11 12:46:52;;;;;;;2.45;1.23;;;;;;;;;;4904710;29;20056;-76
2024/02/11 12:49:23;;;;;;;8.73;1.60;;;;;;;;;;4906351;29;20056;-74
2024/02/11 12:51:54;;;;;;;4.78;1.67;;;;;;;;;;4907323;29;20052;-75
2024/02/11 12:54:24;;;;;;;6.18;1.90;;;;;;;;;;4906976;29;20044;-75
2024/02/11 12:56:55;;;;;;;4.90;1.73;;;;;;;;;;4906382;29;20380;-74
2024/02/11 12:59:27;;;;;;;4.68;2.00;;;;;;;;;;4907146;29;20051;-82
2024/02/11 13:01:57;;;;;;;5.20;1.63;;;;;;;;;;4906147;29;20044;-75
2024/02/11 13:04:28;;;;;;;8.35;1.80;;;;;;;;;;4906060;29;20063;-77
2024/02/11 13:07:00;;;;;;;8.15;2.25;;;;;;;;;;4905854;29;20052;-76
2024/02/11 13:09:31;;;;;;;5.10;1.50;;;;;;;;;;4906488;29;20519;-77
2024/02/11 13:12:04;;;;;;;7.28;1.65;;;;;;;;;;4906914;29;20063;-79
2024/02/11 13:14:35;;;;;;;3.22;1.92;;;;;;;;;;4906659;29;20397;-74
2024/02/11 13:17:06;;;;;;;2.20;1.40;;;;;;;;;;4906726;29;20063;-76
2024/02/11 13:19:38;;;;;;;5.35;1.55;;;;;;;;;;4906435;29;20059;-77
2024/02/11 13:22:12;;;;;;;6.82;1.42;;;;;;;;;;4906124;29;20512;-76
2024/02/11 13:24:44;;;;;;;7.57;1.45;;;;;;;;;;4906898;29;20040;-76
2024/02/11 13:27:17;;;;;;;6.90;1.70;;;;;;;;;;4907097;29;20530;-76
2024/02/11 13:29:49;;;;;;;4.35;1.60;;;;;;;;;;4906907;29;20051;-76
2024/02/11 13:32:23;;;;;;;6.47;1.70;;;;;;;;;;4904683;29;20056;-75
2024/02/11 13:34:58;;;;;;;1.75;1.20;;;;;;;;;;4905368;29;20535;-73
2024/02/11 13:37:31;;;;;;;4.07;1.40;;;;;;;;;;4905930;29;20056;-78
2024/02/11 13:40:04;;;;;;;6.13;1.60;;;;;;;;;;4905707;29;20066;-76
2024/02/11 13:42:34;;;;;;;4.07;1.65;;;;;;;;;;4905462;29;20416;-75
2024/02/11 13:45:07;;;;;;;4.25;1.60;;;;;;;;;;4906044;29;20523;-75
2024/02/11 13:47:38;;;;;;;4.20;1.70;;;;;;;;;;4905812;29;20056;-78
2024/02/11 13:50:10;;;;;;;4.82;1.45;;;;;;;;;;4907808;29;20059;-79
2024/02/11 13:52:42;;;;;;;5.78;1.65;;;;;;;;;;4909433;29;20036;-75
2024/02/11 13:55:16;;;;;;;3.08;1.65;;;;;;;;;;4909193;29;20059;-74
2024/02/11 13:57:48;;;;;;;9.73;3.42;;;;;;;;;;4909213;29;20059;-75
2024/02/11 14:00:21;;;;;;;4.60;1.45;;;;;;;;;;4908554;29;20056;-74
2024/02/11 14:02:53;;;;;;;7.75;1.75;;;;;;;;;;4909295;29;20052;-74
2024/02/11 14:05:25;;;;;;;4.18;1.70;;;;;;;;;;4908730;29;20545;-75
2024/02/11 14:07:57;;;;;;;4.45;1.52;;;;;;;;;;4909108;29;20055;-74
2024/02/11 14:10:27;;;;;;;5.88;1.55;;;;;;;;;;4909442;29;20059;-76
2024/02/11 14:13:03;;;;;;;5.35;1.75;;;;;;;;;;4909100;29;20052;-76
2024/02/11 14:15:39;;;;;;;5.10;2.17;;;;;;;;;;4892476;29;20060;-74
2024/02/11 14:18:11;;;;;;;9.82;1.83;;;;;;;;;;4908791;29;20798;-75
2024/02/11 14:20:42;;;;;;;5.00;1.92;;;;;;;;;;4908473;29;20048;-75
2024/02/11 14:23:12;;;;;;;6.57;1.70;;;;;;;;;;4908549;29;20602;-75
2024/02/11 14:25:44;;;;;;;5.28;1.70;;;;;;;;;;4908380;29;20052;-77
2024/02/11 14:28:15;;;;;;;7.20;1.80;;;;;;;;;;4908442;29;20052;-74
2024/02/11 14:30:45;;;;;;;3.30;1.58;;;;;;;;;;4908836;29;20071;-77
2024/02/11 14:33:15;;;;;;;6.28;1.70;;;;;;;;;;4908223;29;20059;-74
2024/02/11 14:35:46;;;;;;;4.07;1.80;;;;;;;;;;4907628;29;20064;-78
2024/02/11 14:38:18;;;;;;;7.72;2.25;;;;;;;;;;4908747;29;20048;-75
2024/02/11 14:40:49;;;;;;;6.43;1.67;;;;;;;;;;4907921;29;20040;-75
2024/02/11 14:43:19;;;;;;;4.80;1.75;;;;;;;;;;4908212;29;20492;-75
2024/02/11 14:45:50;;;;;;;5.30;3.00;;;;;;;;;;4908900;29;20052;-75
2024/02/11 14:48:21;;;;;;;2.10;1.42;;;;;;;;;;4907936;29;20055;-75
2024/02/11 14:50:52;;;;;;;6.57;1.50;;;;;;;;;;4906398;29;20067;-74
2024/02/11 14:53:22;;;;;;;5.95;1.67;;;;;;;;;;4907910;29;20048;-74
2024/02/11 14:56:00;;;;;;;5.70;1.63;;;;;;;;;;4907779;29;20063;-75
2024/02/11 14:58:32;;;;;;;3.70;1.67;;;;;;;;;;4907666;29;20059;-79
2024/02/11 15:01:06;;;;;;;3.58;1.48;;;;;;;;;;4907235;29;20495;-74
2024/02/11 15:03:40;;;;;;;5.28;2.08;;;;;;;;;;4907452;29;20060;-76
2024/02/11 15:06:10;;;;;;;4.82;1.75;;;;;;;;;;4907593;29;20048;-73
2024/02/11 15:08:42;;;;;;;3.80;1.50;;;;;;;;;;4907538;29;20048;-75